Hartford, Connecticut
Traffic Map
Current Weather Conditions
Hartford, Connecticut
Overcast
Overcast
33°
Feels Like: 26°
Wind Chill: 26° Ceiling: 5500
Heat Index: 33° Visibility: 10mi
Dew Point: 30° Wind: 8mph
Humidity: 89% Direction: 20° (NNE)
Pressure: 30.68in Gusts: 0mph
Raw Report DataKHFD 230753Z AUTO 02007KT 10SM OVC055 01/M01 A3068 RMK AO2 SLP388 T00061011
Traffic Incident Summary
Active as of:
Severity:
Category:
InformationThere was an issue retrieving the traffic information for this location. Please try a different location or try again shortly.
Advertisements